Time;durP1;ratioP1;P1;durP2;ratioP2;P2;SDS_P1;SDS_P2;PMS_P1;PMS_P2;Temp;Humidity;BMP_temperature;BMP_pressure;BME280_temperature;BME280_humidity;BME280_pressure;Samples;Min_cycle;Max_cycle;Signal;HPM_P1;HPM_P2
2021/10/25 00:01:14;;;;;;;10.40;5.93;;;;;;;8.11;86.55;102163.44;5011773;28;20049;-64
2021/10/25 00:03:41;;;;;;;15.57;6.28;;;;;;;8.00;87.10;102136.97;5011947;28;20030;-66
2021/10/25 00:06:06;;;;;;;11.00;6.03;;;;;;;8.11;87.00;102148.03;5011519;28;20030;-68
2021/10/25 00:08:31;;;;;;;12.80;6.35;;;;;;;7.90;86.93;102119.94;5012017;28;20029;-68
2021/10/25 00:10:57;;;;;;;9.88;5.70;;;;;;;7.87;87.38;102144.53;5012092;28;20033;-65
2021/10/25 00:13:22;;;;;;;9.57;5.50;;;;;;;7.92;87.49;102143.19;5011814;28;20053;-65
2021/10/25 00:15:48;;;;;;;11.80;6.05;;;;;;;7.88;87.66;102146.31;5011554;28;20026;-63
2021/10/25 00:18:13;;;;;;;12.60;5.97;;;;;;;7.91;87.63;102138.81;5011652;28;20050;-65
2021/10/25 00:20:39;;;;;;;10.38;6.00;;;;;;;7.71;86.86;102088.50;5011308;28;20046;-67
2021/10/25 00:23:05;;;;;;;9.20;5.40;;;;;;;8.02;85.37;102122.50;5013975;28;20461;-66
2021/10/25 00:25:32;;;;;;;9.77;5.78;;;;;;;7.98;85.49;102147.91;5017797;28;20435;-67
2021/10/25 00:27:58;;;;;;;20.98;8.40;;;;;;;7.73;86.32;102099.78;5030329;28;20086;-66
2021/10/25 00:30:24;;;;;;;17.33;6.95;;;;;;;7.96;87.49;102150.34;5011796;28;20030;-67
2021/10/25 00:32:49;;;;;;;17.17;6.97;;;;;;;7.91;86.06;102131.13;5011480;28;20026;-67
2021/10/25 00:35:15;;;;;;;18.63;6.82;;;;;;;7.51;86.66;102057.03;5011119;28;20085;-65
2021/10/25 00:37:42;;;;;;;18.52;6.72;;;;;;;7.86;87.32;102147.88;5011476;28;20033;-67
2021/10/25 00:40:08;;;;;;;13.48;6.20;;;;;;;7.64;87.89;102150.50;5011369;28;20029;-67
2021/10/25 00:42:33;;;;;;;12.18;6.30;;;;;;;7.63;89.21;102144.47;5011495;28;20135;-66
2021/10/25 00:44:59;;;;;;;15.90;6.32;;;;;;;7.17;89.03;102048.50;5011572;28;20500;-67
2021/10/25 00:47:25;;;;;;;16.33;6.28;;;;;;;7.06;88.98;102057.94;5010864;28;20439;-64
2021/10/25 00:49:50;;;;;;;10.93;5.68;;;;;;;7.47;89.63;102159.50;5011013;28;20038;-67
2021/10/25 00:52:18;;;;;;;12.43;5.75;;;;;;;7.34;90.39;102155.09;5010656;28;20034;-67
2021/10/25 00:54:45;;;;;;;16.98;6.28;;;;;;;7.18;91.18;102155.56;5011275;28;20030;-66
2021/10/25 00:57:10;;;;;;;14.35;6.40;;;;;;;6.71;91.86;102149.38;5011165;28;20041;-66
2021/10/25 00:59:36;;;;;;;13.90;6.85;;;;;;;6.28;94.27;102143.34;5011407;28;20034;-67
2021/10/25 01:02:02;;;;;;;15.05;6.95;;;;;;;6.32;93.08;102146.31;5011281;28;20033;-65
2021/10/25 01:04:27;;;;;;;12.23;6.63;;;;;;;6.22;93.19;102156.59;5009682;28;20029;-72
2021/10/25 01:06:54;;;;;;;11.73;6.75;;;;;;;6.31;92.66;102149.63;5011122;28;20026;-67
2021/10/25 01:09:20;;;;;;;10.60;6.05;;;;;;;6.30;92.19;102145.25;5008502;28;20037;-66
2021/10/25 01:11:48;;;;;;;9.38;6.18;;;;;;;6.07;92.43;102117.78;5011099;28;20110;-72
2021/10/25 01:14:15;;;;;;;25.90;15.70;;;;;;;5.87;93.10;102140.81;5010933;28;20026;-67
2021/10/25 01:16:40;;;;;;;17.17;8.80;;;;;;;5.64;94.28;102137.25;5011109;28;20065;-68
2021/10/25 01:19:06;;;;;;;15.48;8.20;;;;;;;5.33;93.43;102050.16;5010918;28;20089;-68
2021/10/25 01:21:32;;;;;;;14.85;8.23;;;;;;;6.04;92.33;102139.69;5010630;28;20543;-67
2021/10/25 01:23:58;;;;;;;10.82;6.55;;;;;;;6.04;92.07;102149.94;5011269;28;20021;-67
2021/10/25 01:26:24;;;;;;;11.73;6.40;;;;;;;6.14;90.79;102147.38;5011326;28;20064;-65
2021/10/25 01:28:53;;;;;;;9.50;5.68;;;;;;;6.16;90.01;102150.97;5013653;28;20025;-67
2021/10/25 01:31:20;;;;;;;10.45;5.78;;;;;;;5.33;90.57;102014.28;5014710;28;20400;-67
2021/10/25 01:33:49;;;;;;;9.38;6.25;;;;;;;6.13;90.58;102140.44;5014323;28;20060;-69
2021/10/25 01:36:15;;;;;;;9.40;6.20;;;;;;;5.93;91.18;102146.47;5014763;28;20401;-67
2021/10/25 01:38:41;;;;;;;10.23;7.90;;;;;;;4.69;90.40;101950.16;5014529;28;20079;-67
2021/10/25 01:41:09;;;;;;;11.88;7.93;;;;;;;5.86;91.57;102146.72;5014572;28;20446;-67
2021/10/25 01:43:36;;;;;;;11.68;7.72;;;;;;;5.83;90.99;102135.47;5045153;28;20056;-67
2021/10/25 01:46:02;;;;;;;10.77;7.45;;;;;;;5.80;90.74;102147.13;5007427;28;20014;-67
2021/10/25 01:48:28;;;;;;;9.85;6.38;;;;;;;5.35;90.86;102112.66;5012223;28;20045;-65
2021/10/25 01:50:54;;;;;;;9.32;6.60;;;;;;;5.53;91.03;102136.34;5013111;28;20444;-68
2021/10/25 01:53:20;;;;;;;10.75;6.13;;;;;;;5.64;91.85;102156.06;5014009;28;20480;-66
2021/10/25 01:55:49;;;;;;;9.27;6.03;;;;;;;5.74;91.78;102159.41;5000486;28;20026;-68
2021/10/25 01:58:15;;;;;;;9.10;6.28;;;;;;;5.81;91.51;102162.63;4996136;28;20400;-69
2021/10/25 02:00:40;;;;;;;10.25;6.70;;;;;;;5.76;91.50;102148.53;4996788;28;20027;-65
2021/10/25 02:03:06;;;;;;;10.43;6.57;;;;;;;5.86;91.11;102149.28;4995245;28;20022;-67
2021/10/25 02:05:31;;;;;;;11.85;7.07;;;;;;;5.83;91.32;102152.47;4996081;28;20022;-70
2021/10/25 02:07:57;;;;;;;11.23;6.65;;;;;;;5.30;90.61;102043.09;4994945;28;20056;-64
2021/10/25 02:10:22;;;;;;;10.38;7.25;;;;;;;5.86;90.62;102150.19;4994189;28;20030;-66
2021/10/25 02:12:48;;;;;;;11.68;7.43;;;;;;;5.69;90.95;102151.34;4993781;28;20073;-65
2021/10/25 02:15:13;;;;;;;12.70;7.47;;;;;;;5.61;91.29;102145.56;4995580;28;20089;-65
2021/10/25 02:17:38;;;;;;;11.82;7.25;;;;;;;4.96;91.58;102053.06;4995485;28;20026;-66
2021/10/25 02:20:05;;;;;;;14.13;7.40;;;;;;;5.62;92.37;102160.19;4995971;28;20046;-65
2021/10/25 02:22:30;;;;;;;11.75;6.47;;;;;;;5.55;90.93;102147.63;4998499;28;20047;-65
2021/10/25 02:24:57;;;;;;;11.52;6.68;;;;;;;5.63;90.79;102150.81;4994389;28;20018;-68
2021/10/25 02:27:23;;;;;;;11.60;6.40;;;;;;;5.63;90.78;102141.50;4993783;28;20080;-65
2021/10/25 02:29:48;;;;;;;12.10;6.32;;;;;;;5.68;89.74;102159.78;4993094;28;20042;-65
2021/10/25 02:32:16;;;;;;;10.88;6.60;;;;;;;5.61;89.44;102153.25;4995302;28;20499;-65
2021/10/25 02:34:45;;;;;;;12.02;6.72;;;;;;;5.83;89.21;102166.22;4995805;28;20023;-63
2021/10/25 02:37:11;;;;;;;10.30;6.85;;;;;;;5.79;89.09;102164.13;5013655;28;20025;-67
2021/10/25 02:39:36;;;;;;;9.75;6.22;;;;;;;5.69;89.58;102156.47;5013389;28;20030;-67
2021/10/25 02:42:02;;;;;;;10.48;6.60;;;;;;;5.32;90.54;102161.94;5013240;28;20085;-67
2021/10/25 02:44:27;;;;;;;14.27;6.30;;;;;;;5.28;91.30;102171.78;5013725;28;20026;-66
2021/10/25 02:46:53;;;;;;;9.75;6.55;;;;;;;5.44;90.34;102174.00;5013539;28;20389;-67
2021/10/25 02:49:20;;;;;;;16.33;10.05;;;;;;;5.54;89.81;102173.13;5013641;28;20196;-67
2021/10/25 02:51:45;;;;;;;14.52;8.02;;;;;;;5.41;89.61;102148.09;5013566;28;20083;-67
2021/10/25 02:54:11;;;;;;;16.98;8.13;;;;;;;5.47;89.58;102153.75;5013191;28;20120;-67
2021/10/25 02:56:36;;;;;;;12.45;7.07;;;;;;;5.43;89.28;102167.06;5012754;28;20447;-67
2021/10/25 02:59:08;;;;;;;14.90;7.30;;;;;;;5.16;90.67;102146.03;5013593;28;20030;-66
2021/10/25 03:01:34;;;;;;;12.73;7.90;;;;;;;5.35;90.23;102166.44;5010991;28;20041;-67
2021/10/25 03:03:59;;;;;;;11.52;7.50;;;;;;;5.40;89.93;102161.69;5013480;28;20409;-66
2021/10/25 03:06:25;;;;;;;17.33;8.20;;;;;;;5.28;89.91;102166.66;5013222;28;20029;-67
2021/10/25 03:08:50;;;;;;;12.77;8.05;;;;;;;4.54;90.05;102059.72;5013048;28;20026;-67
2021/10/25 03:11:16;;;;;;;13.90;8.55;;;;;;;4.94;90.61;102108.34;5013164;28;20092;-67
2021/10/25 03:13:41;;;;;;;12.80;8.23;;;;;;;5.26;90.37;102169.09;5012901;28;20041;-68
2021/10/25 03:16:06;;;;;;;13.48;8.02;;;;;;;5.05;90.88;102167.22;5012654;28;20036;-67
2021/10/25 03:18:32;;;;;;;14.55;8.45;;;;;;;5.00;91.53;102154.06;5013042;28;20026;-66
2021/10/25 03:20:58;;;;;;;16.85;8.90;;;;;;;5.07;91.43;102166.63;5013251;28;20041;-66
2021/10/25 03:23:23;;;;;;;22.45;10.23;;;;;;;4.17;92.16;102045.38;5010924;28;20033;-67
2021/10/25 03:25:49;;;;;;;25.17;12.25;;;;;;;4.76;92.02;102158.84;5012644;28;20092;-66
2021/10/25 03:28:15;;;;;;;26.10;12.43;;;;;;;4.66;93.02;102161.31;5012571;28;20038;-66
2021/10/25 03:30:40;;;;;;;22.13;9.50;;;;;;;4.72;92.93;102146.50;5012626;28;20048;-67
2021/10/25 03:33:06;;;;;;;21.35;8.07;;;;;;;4.68;93.15;102160.69;5012947;28;20033;-66
2021/10/25 03:35:51;;;;;;;12.18;6.55;;;;;;;3.95;93.99;102103.91;5029946;28;20187;-66
2021/10/25 03:38:18;;;;;;;11.50;6.45;;;;;;;3.76;94.93;102069.03;5029902;28;20124;-66
2021/10/25 03:40:48;;;;;;;12.98;7.20;;;;;;;4.41;94.19;102171.03;5029353;28;20071;-67
2021/10/25 03:43:14;;;;;;;9.43;6.28;;;;;;;4.44;94.25;102171.34;5029930;28;20044;-66
2021/10/25 03:46:02;;;;;;;30.63;18.30;;;;;;;4.11;93.78;102065.28;5029770;28;20038;-66
2021/10/25 03:51:25;;;;;;;24.30;14.90;;;;;;;4.51;93.86;102165.97;4968275;28;20448;-66
2021/10/25 04:29:01;;;;;;;23.70;9.93;;;;;;;4.94;92.11;102172.31;4981837;28;20034;-67
2021/10/25 04:31:27;;;;;;;38.05;19.10;;;;;;;4.92;93.93;102171.31;4970214;28;20070;-67
2021/10/25 04:33:52;;;;;;;31.40;16.60;;;;;;;4.93;93.51;102178.19;4970245;28;20038;-67
2021/10/25 04:36:18;;;;;;;25.88;13.10;;;;;;;4.85;93.15;102179.22;4971309;28;20572;-66
2021/10/25 04:38:43;;;;;;;29.77;12.63;;;;;;;4.95;92.62;102181.81;4973485;28;20445;-66
2021/10/25 04:41:08;;;;;;;24.98;13.80;;;;;;;5.05;92.13;102174.91;4970261;28;20039;-66
2021/10/25 04:43:34;;;;;;;26.42;13.38;;;;;;;5.18;91.17;102180.34;4970475;28;20030;-66
2021/10/25 04:45:59;;;;;;;25.98;12.55;;;;;;;5.24;89.93;102178.31;4970779;28;20077;-66
2021/10/25 04:48:25;;;;;;;21.98;13.15;;;;;;;4.83;89.76;102103.97;4975341;28;20037;-67
2021/10/25 04:50:50;;;;;;;30.42;16.00;;;;;;;4.86;89.83;102183.56;4998309;28;20127;-67
2021/10/25 04:53:16;;;;;;;23.77;14.15;;;;;;;4.75;91.87;102181.69;5011943;28;20033;-67
2021/10/25 04:55:41;;;;;;;19.25;9.25;;;;;;;4.73;92.98;102188.38;5012044;28;20029;-66
2021/10/25 04:58:07;;;;;;;21.58;12.75;;;;;;;4.60;93.72;102176.13;5011808;28;20026;-65
2021/10/25 05:00:33;;;;;;;44.92;28.75;;;;;;;4.67;93.60;102196.38;5011724;28;20538;-66
2021/10/25 05:03:00;;;;;;;32.95;18.58;;;;;;;4.08;93.62;102093.16;5014586;28;20030;-66
2021/10/25 05:05:25;;;;;;;31.83;17.33;;;;;;;4.56;94.07;102195.44;5003647;28;20038;-67
2021/10/25 05:07:51;;;;;;;24.80;13.50;;;;;;;4.45;94.62;102196.13;4996218;28;20034;-66
2021/10/25 05:10:16;;;;;;;88.07;40.17;;;;;;;3.89;94.87;102110.28;4996021;28;20027;-66
2021/10/25 05:12:42;;;;;;;23.98;12.98;;;;;;;4.51;93.64;102212.00;4995827;28;20027;-67
2021/10/25 05:15:08;;;;;;;13.18;8.27;;;;;;;4.25;93.36;102182.47;4995970;28;20481;-67
2021/10/25 05:17:34;;;;;;;18.58;9.32;;;;;;;4.39;93.30;102206.72;4995938;28;20101;-66
2021/10/25 05:19:59;;;;;;;13.35;7.50;;;;;;;4.25;93.01;102187.59;4994088;28;20661;-67
2021/10/25 05:22:25;;;;;;;11.43;7.10;;;;;;;4.29;93.79;102224.56;4995838;28;20038;-67
2021/10/25 05:24:51;;;;;;;12.95;7.03;;;;;;;4.20;93.83;102205.06;4995759;28;20030;-67
2021/10/25 05:27:19;;;;;;;12.70;7.70;;;;;;;4.42;93.81;102226.56;4995714;28;20037;-67
2021/10/25 05:29:44;;;;;;;11.80;7.60;;;;;;;4.04;93.34;102151.63;4995605;28;20035;-67
2021/10/25 05:32:10;;;;;;;22.15;11.88;;;;;;;4.42;94.67;102224.00;4995727;28;20037;-66
2021/10/25 05:34:36;;;;;;;16.75;11.93;;;;;;;4.42;95.02;102216.31;4995651;28;20037;-67
2021/10/25 05:37:02;;;;;;;26.80;15.13;;;;;;;4.35;95.46;102202.09;4995642;28;20088;-67
2021/10/25 05:39:28;;;;;;;28.65;17.02;;;;;;;4.48;95.34;102204.09;4995493;28;20465;-67
2021/10/25 05:41:54;;;;;;;23.40;12.52;;;;;;;4.74;95.61;102223.44;4994170;28;20031;-66
2021/10/25 05:44:21;;;;;;;16.23;10.85;;;;;;;4.85;95.25;102231.28;4995704;28;20038;-67
2021/10/25 05:46:46;;;;;;;20.23;13.25;;;;;;;4.87;95.40;102228.84;5009114;28;20035;-67
2021/10/25 05:49:12;;;;;;;27.15;15.43;;;;;;;4.98;95.44;102234.91;4995178;28;20400;-66
2021/10/25 05:51:37;;;;;;;13.30;10.15;;;;;;;4.98;95.62;102243.47;4995312;28;20080;-66
2021/10/25 05:54:05;;;;;;;18.63;10.18;;;;;;;4.46;95.92;102151.88;4995150;28;20029;-66
2021/10/25 05:56:31;;;;;;;13.30;8.13;;;;;;;4.90;96.63;102241.00;4994918;28;20034;-67
2021/10/25 05:58:57;;;;;;;12.60;7.57;;;;;;;5.13;96.30;102240.50;4994920;28;20030;-67
2021/10/25 06:01:29;;;;;;;12.82;7.80;;;;;;;5.32;95.14;102251.56;4995173;28;20039;-67
2021/10/25 06:04:05;;;;;;;14.73;8.57;;;;;;;5.56;95.26;102245.84;5012877;28;20384;-67
2021/10/25 06:06:32;;;;;;;24.52;13.95;;;;;;;5.81;95.19;102249.75;5014530;28;20124;-65
2021/10/25 06:08:58;;;;;;;21.48;11.90;;;;;;;6.00;94.78;102251.34;5014271;28;20030;-66
2021/10/25 06:11:23;;;;;;;13.27;8.55;;;;;;;6.05;94.81;102246.63;5013130;28;20120;-66
2021/10/25 06:13:49;;;;;;;15.15;9.20;;;;;;;6.14;95.35;102255.97;5013796;28;20033;-67
2021/10/25 06:16:17;;;;;;;14.38;8.57;;;;;;;6.11;94.54;102244.56;5014519;28;20448;-66
2021/10/25 06:18:44;;;;;;;13.43;8.65;;;;;;;5.35;94.39;102108.41;5014485;28;20045;-67
2021/10/25 06:21:10;;;;;;;18.15;8.93;;;;;;;5.81;94.29;102174.53;5013520;28;20564;-66
2021/10/25 06:23:36;;;;;;;19.65;8.75;;;;;;;6.40;94.49;102264.94;5014223;28;20060;-66
2021/10/25 06:26:03;;;;;;;17.48;8.75;;;;;;;6.52;93.88;102265.06;5014265;28;20033;-67
2021/10/25 06:28:30;;;;;;;17.33;9.50;;;;;;;6.63;93.85;102261.69;5014080;28;20030;-67
2021/10/25 06:31:01;;;;;;;25.75;14.32;;;;;;;6.68;93.57;102249.25;5014173;28;20064;-67
2021/10/25 06:33:28;;;;;;;27.80;14.77;;;;;;;6.84;93.55;102238.56;5013633;28;20527;-67
2021/10/25 06:36:05;;;;;;;29.88;11.57;;;;;;;7.09;93.65;102255.91;5012712;28;20030;-67
2021/10/25 06:38:35;;;;;;;23.23;13.90;;;;;;;7.31;92.91;102273.03;5014018;28;20074;-66
2021/10/25 06:41:01;;;;;;;25.90;11.40;;;;;;;7.42;92.55;102256.78;5014027;28;20084;-67
2021/10/25 06:43:27;;;;;;;24.70;11.80;;;;;;;7.63;91.99;102261.81;5014063;28;20026;-66
2021/10/25 06:45:53;;;;;;;19.45;11.75;;;;;;;7.93;90.85;102264.16;5013396;28;20631;-66
2021/10/25 06:48:19;;;;;;;20.95;11.40;;;;;;;8.12;90.47;102265.56;5013355;28;20025;-67
2021/10/25 06:50:44;;;;;;;19.42;9.68;;;;;;;8.38;89.44;102271.81;5013630;28;20456;-66
2021/10/25 06:53:12;;;;;;;23.98;13.43;;;;;;;8.63;88.80;102265.94;5013750;28;20034;-67
2021/10/25 06:55:38;;;;;;;22.23;9.20;;;;;;;7.93;87.29;102120.16;5013597;28;20041;-67
2021/10/25 06:58:04;;;;;;;19.80;10.18;;;;;;;8.94;86.83;102258.78;5013794;28;20464;-66
2021/10/25 07:00:30;;;;;;;27.00;8.32;;;;;;;9.06;83.76;102254.50;5013743;28;20056;-67
2021/10/25 07:02:55;;;;;;;27.52;11.18;;;;;;;9.25;83.20;102230.03;5013559;28;20076;-66
2021/10/25 07:05:21;;;;;;;23.83;10.73;;;;;;;9.38;83.62;102253.34;5013441;28;20492;-67
2021/10/25 07:07:47;;;;;;;21.08;7.63;;;;;;;9.41;82.83;102251.72;5012289;28;20096;-66
2021/10/25 07:10:12;;;;;;;23.52;7.70;;;;;;;9.39;82.38;102249.97;5013492;28;20040;-67
2021/10/25 07:12:39;;;;;;;20.23;7.25;;;;;;;9.65;79.95;102245.72;5013415;28;20038;-66
2021/10/25 07:15:05;;;;;;;20.65;8.95;;;;;;;9.75;80.63;102249.84;5013384;28;20400;-66
2021/10/25 08:06:10;;;;;;;16.45;6.18;;;;;;;10.58;71.04;102192.56;4970911;28;20061;-67
2021/10/25 08:08:45;;;;;;;12.85;5.30;;;;;;;10.81;71.24;102209.53;4970595;28;20046;-67
2021/10/25 08:11:11;;;;;;;17.00;8.85;;;;;;;10.82;70.95;102202.69;4970892;28;20125;-67
2021/10/25 08:13:40;;;;;;;16.38;7.03;;;;;;;10.33;70.20;102120.31;4970789;28;20035;-67
2021/10/25 08:16:42;;;;;;;21.83;6.00;;;;;;;11.04;68.53;102207.53;4970649;28;20117;-68
2021/10/25 08:19:10;;;;;;;16.85;11.27;;;;;;;11.23;70.42;102201.81;4957371;28;20457;-67
2021/10/25 08:21:36;;;;;;;10.68;5.53;;;;;;;11.22;68.82;102200.03;4970461;28;20054;-67
2021/10/25 08:24:01;;;;;;;8.93;4.03;;;;;;;11.27;68.90;102197.72;4970573;28;20131;-68
2021/10/25 08:26:27;;;;;;;10.55;4.50;;;;;;;10.82;70.59;102120.88;4970867;28;20034;-68
2021/10/25 08:28:52;;;;;;;8.27;4.45;;;;;;;11.29;67.02;102199.59;4970363;28;20697;-68
2021/10/25 08:31:18;;;;;;;18.55;5.97;;;;;;;11.04;69.96;102137.75;4970719;28;20035;-67
2021/10/25 08:33:51;;;;;;;13.25;5.43;;;;;;;11.52;70.41;102205.28;4970827;28;20034;-67
2021/10/25 08:41:34;;;;;;;8.27;4.15;;;;;;;11.63;67.13;102118.00;4973943;28;20101;-67
2021/10/25 08:44:04;;;;;;;14.35;4.53;;;;;;;11.79;65.64;102115.50;5011954;28;20117;-68
2021/10/25 08:46:30;;;;;;;21.40;5.65;;;;;;;12.33;64.31;102194.53;5012115;28;20022;-67
2021/10/25 08:48:56;;;;;;;22.23;6.78;;;;;;;12.27;65.20;102180.44;5012105;28;20030;-67
2021/10/25 08:51:24;;;;;;;12.65;5.15;;;;;;;11.75;65.52;102099.69;5011950;28;20432;-67
2021/10/25 08:53:50;;;;;;;17.38;5.00;;;;;;;12.29;62.38;102188.28;5011994;28;20025;-67
2021/10/25 08:56:17;;;;;;;13.45;4.53;;;;;;;12.45;62.95;102196.13;5011532;28;20045;-67
2021/10/25 08:58:50;;;;;;;8.95;4.25;;;;;;;12.54;63.96;102194.88;5011907;28;20119;-67
2021/10/25 09:01:26;;;;;;;10.98;4.18;;;;;;;12.74;62.40;102188.22;5012036;28;20451;-67
2021/10/25 09:04:11;;;;;;;10.80;5.72;;;;;;;12.76;60.88;102182.31;5012079;28;20041;-68
2021/10/25 09:06:55;;;;;;;8.13;4.22;;;;;;;12.32;59.97;102109.88;5011811;28;20026;-68
2021/10/25 09:09:22;;;;;;;19.52;5.22;;;;;;;12.83;62.07;102187.81;5011746;28;20491;-67
2021/10/25 09:12:08;;;;;;;18.15;9.52;;;;;;;12.65;64.15;102182.50;5011594;28;20386;-67
2021/10/25 09:14:38;;;;;;;13.73;6.05;;;;;;;12.74;62.70;102186.50;5011559;28;20144;-67
2021/10/25 09:17:09;;;;;;;13.48;8.80;;;;;;;12.72;61.81;102184.63;5011365;28;20084;-68
2021/10/25 09:19:36;;;;;;;9.15;4.60;;;;;;;12.77;61.82;102183.19;5011581;28;20079;-68
2021/10/25 09:22:11;;;;;;;18.25;5.22;;;;;;;12.50;59.52;102120.34;5011789;28;20034;-67
2021/10/25 09:24:38;;;;;;;11.85;4.60;;;;;;;12.73;58.25;102171.75;5011563;28;20392;-68
2021/10/25 09:27:07;;;;;;;9.05;3.75;;;;;;;12.91;59.70;102171.88;5011483;28;20022;-67
2021/10/25 09:29:37;;;;;;;9.15;3.45;;;;;;;12.97;58.73;102168.72;5011483;28;20033;-67
2021/10/25 09:32:15;;;;;;;5.18;2.70;;;;;;;12.57;55.71;102092.31;5011717;28;20022;-67
2021/10/25 09:34:52;;;;;;;8.35;3.80;;;;;;;13.18;57.51;102174.16;5011478;28;20036;-67
2021/10/25 09:37:23;;;;;;;13.70;3.58;;;;;;;13.19;55.79;102160.41;5010243;28;20033;-67
2021/10/25 09:39:55;;;;;;;11.35;4.40;;;;;;;13.08;56.87;102156.34;5011144;28;20030;-67
2021/10/25 09:45:38;;;;;;;10.60;4.28;;;;;;;13.47;56.53;102158.41;5011505;28;20113;-67
2021/10/25 09:51:13;;;;;;;25.65;6.93;;;;;;;13.91;55.06;102142.50;4973305;28;20148;-67
2021/10/25 09:53:46;;;;;;;14.25;5.15;;;;;;;14.00;55.58;102138.59;4973063;28;20717;-67
2021/10/25 09:56:15;;;;;;;6.68;3.30;;;;;;;13.91;56.89;102113.94;4973120;28;20053;-67
2021/10/25 10:01:36;;;;;;;7.07;3.20;;;;;;;14.23;54.19;102129.34;4934647;29;20142;-67
2021/10/25 10:04:06;;;;;;;8.05;3.20;;;;;;;14.36;51.35;102121.31;4934637;29;20043;-67
2021/10/25 10:06:32;;;;;;;9.05;3.38;;;;;;;14.23;49.27;102054.00;4934594;29;20047;-67
2021/10/25 10:08:58;;;;;;;7.60;3.40;;;;;;;14.76;51.75;102118.88;4934488;29;20446;-67
2021/10/25 10:11:26;;;;;;;7.80;3.55;;;;;;;14.62;51.49;102113.00;4934320;29;20046;-68
2021/10/25 10:13:52;;;;;;;8.68;3.28;;;;;;;14.07;50.54;102024.72;4934317;29;20122;-67
2021/10/25 10:16:18;;;;;;;16.38;6.10;;;;;;;14.57;50.31;102099.78;4934411;29;20092;-67
2021/10/25 10:18:49;;;;;;;21.73;6.05;;;;;;;14.62;52.31;102115.59;4934122;29;20130;-68
2021/10/25 10:21:16;;;;;;;7.20;3.78;;;;;;;14.79;51.18;102106.91;4938190;29;20083;-67
2021/10/25 10:23:52;;;;;;;10.43;4.13;;;;;;;14.44;49.61;102024.66;4937412;29;20034;-67
2021/10/25 10:26:18;;;;;;;7.63;3.80;;;;;;;15.01;50.25;102092.25;4953301;29;20041;-67
2021/10/25 10:28:49;;;;;;;8.57;4.10;;;;;;;15.23;48.06;102091.50;4953215;29;20031;-67
2021/10/25 10:31:19;;;;;;;10.20;3.90;;;;;;;15.32;47.98;102085.81;4953241;29;20055;-67
2021/10/25 10:33:46;;;;;;;9.18;3.00;;;;;;;15.23;48.43;102091.50;4953215;29;20031;-67
2021/10/25 10:36:25;;;;;;;13.57;4.25;;;;;;;15.39;49.81;102079.16;4953498;29;20074;-68
2021/10/25 10:39:04;;;;;;;19.98;5.60;;;;;;;15.15;48.98;102062.56;4995971;28;20103;-67
2021/10/25 10:41:39;;;;;;;9.80;5.60;;;;;;;15.26;51.08;102082.94;5013205;28;20066;-72
2021/10/25 10:44:14;;;;;;;12.27;3.92;;;;;;;15.16;48.46;102066.03;5010842;28;20034;-68
2021/10/25 10:46:45;;;;;;;11.73;3.38;;;;;;;15.10;50.05;102050.16;5013174;28;20388;-69
2021/10/25 10:49:35;;;;;;;10.38;3.47;;;;;;;15.36;49.22;102028.78;5010912;28;20415;-69
2021/10/25 10:55:00;;;;;;;10.32;4.93;;;;;;;14.92;53.40;102043.34;5012890;28;20026;-67
2021/10/25 11:00:41;;;;;;;23.45;14.20;;;;;;;14.08;53.49;101961.56;5011389;28;20499;-67
2021/10/25 11:03:12;;;;;;;10.52;3.05;;;;;;;13.90;54.32;102036.88;5012043;28;20022;-66
2021/10/25 11:05:58;;;;;;;13.02;8.00;;;;;;;14.10;55.80;102033.47;5011369;28;20480;-66
2021/10/25 11:08:29;;;;;;;10.75;5.97;;;;;;;13.92;55.83;101972.06;5012038;28;20038;-68
2021/10/25 11:11:14;;;;;;;8.80;5.15;;;;;;;14.26;52.22;102023.00;5008450;28;20578;-67
2021/10/25 11:13:47;;;;;;;9.98;6.20;;;;;;;14.35;51.84;102033.78;5013843;28;20061;-69
2021/10/25 11:16:28;;;;;;;11.85;6.80;;;;;;;13.86;52.77;101962.25;5010947;28;20025;-68
2021/10/25 11:18:59;;;;;;;12.38;7.97;;;;;;;13.83;52.46;102026.13;5012008;28;20450;-68
2021/10/25 11:21:37;;;;;;;14.90;6.97;;;;;;;13.37;54.13;101953.00;5009501;28;20062;-71
2021/10/25 11:24:06;;;;;;;20.15;7.22;;;;;;;14.11;53.83;102011.91;5000174;28;20495;-67
2021/10/25 11:26:36;;;;;;;8.40;3.88;;;;;;;14.23;52.03;101966.59;5012468;28;20069;-67
2021/10/25 11:29:03;;;;;;;9.73;4.13;;;;;;;14.49;50.66;102010.16;5009780;28;20072;-67
2021/10/25 11:31:32;;;;;;;8.50;4.25;;;;;;;14.36;51.97;102009.59;5012190;28;20026;-71
2021/10/25 11:33:58;;;;;;;15.20;3.50;;;;;;;14.37;50.07;101998.38;5012724;28;20021;-70
2021/10/25 11:36:29;;;;;;;7.60;3.60;;;;;;;14.54;53.30;101999.16;5026758;28;20034;-69
2021/10/25 11:38:59;;;;;;;7.65;3.40;;;;;;;14.80;51.20;102001.19;5012498;28;20041;-67
2021/10/25 11:41:24;;;;;;;6.57;3.00;;;;;;;14.79;50.84;101986.41;5012350;28;20030;-68
2021/10/25 11:43:51;;;;;;;9.65;3.30;;;;;;;14.87;51.02;101974.63;5012380;28;20046;-69
2021/10/25 11:46:21;;;;;;;6.72;4.15;;;;;;;14.99;51.65;101982.97;5012178;28;20041;-68
2021/10/25 11:48:55;;;;;;;12.70;6.15;;;;;;;15.04;52.22;101975.34;5011821;28;20108;-68
2021/10/25 11:51:23;;;;;;;9.32;3.40;;;;;;;14.62;51.79;101929.34;5009275;28;20126;-71
2021/10/25 11:53:59;;;;;;;6.78;3.17;;;;;;;14.84;51.14;101985.78;5012271;28;20028;-68
2021/10/25 11:56:26;;;;;;;13.10;4.75;;;;;;;14.86;50.57;101975.44;5011929;28;20484;-68
2021/10/25 11:58:55;;;;;;;6.75;3.88;;;;;;;14.88;51.63;101966.03;5011650;28;20030;-68
2021/10/25 12:01:22;;;;;;;8.27;3.95;;;;;;;14.71;51.13;101973.06;5012422;28;20026;-70
2021/10/25 12:03:47;;;;;;;7.68;3.75;;;;;;;14.77;51.29;101975.06;5011178;28;20033;-69
2021/10/25 12:06:16;;;;;;;11.18;3.83;;;;;;;14.88;53.14;101953.03;5017056;28;20034;-70
2021/10/25 12:08:56;;;;;;;7.72;3.25;;;;;;;14.96;51.27;101956.81;5019408;28;20111;-66
2021/10/25 12:14:14;;;;;;;10.20;3.67;;;;;;;15.22;51.13;101959.63;5013564;28;20061;-66
2021/10/25 12:16:48;;;;;;;10.80;5.47;;;;;;;14.59;51.40;101876.31;5008293;28;20417;-70
2021/10/25 12:19:14;;;;;;;11.68;4.00;;;;;;;14.88;51.99;101927.88;5008016;28;20476;-69
2021/10/25 12:21:40;;;;;;;8.02;3.92;;;;;;;15.04;51.75;101963.25;4989493;28;20052;-68
2021/10/25 12:24:10;;;;;;;6.95;2.90;;;;;;;14.87;50.81;101914.84;5008542;28;20026;-69
2021/10/25 12:26:37;;;;;;;7.28;3.03;;;;;;;15.17;50.82;101958.56;5008768;28;21077;-66
2021/10/25 12:29:28;;;;;;;7.38;2.72;;;;;;;15.21;49.18;101952.66;5008308;28;20153;-68
2021/10/25 12:32:11;;;;;;;6.03;3.00;;;;;;;15.27;51.20;101955.50;4949604;28;20035;-70
2021/10/25 12:34:51;;;;;;;8.93;3.60;;;;;;;15.16;49.69;101938.56;4949196;28;20553;-68
2021/10/25 12:37:22;;;;;;;5.88;2.95;;;;;;;15.08;48.20;101946.06;4931785;28;20040;-68
2021/10/25 12:39:50;;;;;;;5.82;2.85;;;;;;;15.16;49.44;101946.38;4913480;29;20088;-68
2021/10/25 12:42:16;;;;;;;4.90;2.33;;;;;;;15.06;48.46;101932.09;4915319;29;20111;-68
2021/10/25 12:44:46;;;;;;;5.72;2.60;;;;;;;14.69;51.70;101944.41;4926201;29;20526;-70
2021/10/25 12:47:19;;;;;;;11.63;3.45;;;;;;;14.88;50.95;101946.09;4929258;29;20028;-68
2021/10/25 12:49:50;;;;;;;9.82;3.30;;;;;;;14.89;49.63;101918.38;4930546;29;20127;-69
2021/10/25 12:52:18;;;;;;;11.57;3.50;;;;;;;15.01;49.12;101941.41;4928955;29;20036;-69
2021/10/25 12:54:45;;;;;;;9.30;4.40;;;;;;;14.96;50.42;101949.00;4930634;29;20114;-70
2021/10/25 12:57:22;;;;;;;15.15;4.50;;;;;;;14.70;50.02;101940.09;4930625;29;20031;-71
2021/10/25 13:00:06;;;;;;;11.38;4.32;;;;;;;14.59;52.68;101943.91;4928405;29;20036;-68
2021/10/25 13:02:52;;;;;;;18.02;5.57;;;;;;;14.56;51.72;101937.72;4945447;28;20042;-68
2021/10/25 13:05:33;;;;;;;7.00;2.92;;;;;;;14.56;51.48;101905.66;4943998;28;20036;-71
2021/10/25 13:08:01;;;;;;;10.02;4.15;;;;;;;14.71;52.17;101926.28;4967272;28;20063;-69
2021/10/25 13:10:32;;;;;;;6.82;2.47;;;;;;;14.57;49.54;101921.31;5047517;28;20060;-66
2021/10/25 13:12:59;;;;;;;4.38;2.53;;;;;;;14.63;51.64;101919.81;5030679;28;20041;-70
2021/10/25 13:15:25;;;;;;;3.80;2.22;;;;;;;14.58;51.68;101904.03;5047495;28;20040;-68
2021/10/25 13:17:56;;;;;;;8.02;3.10;;;;;;;14.76;50.04;101914.38;5043434;28;20140;-69